Impacts METAR Board
IDs:

KDFW - Dallas-Ft Worth Intl, TX, US

Updated at: 0200 UTC 24 Apr 2019
Potential Impact None Slight Moderate High
Time 23/14Z 23/15Z 23/16Z 23/17Z 23/18Z 23/19Z 23/20Z 23/21Z 23/22Z 23/23Z 24/00Z 24/01Z 24/02Z
Temp68 70 73 74 73 72 75 75 75 73 68 67 67
Dewpt62 62 63 62 62 65 64 64 64 64 66 63 64
Altim30.01 30.01 30.02 30.01 29.99 29.98 29.96 29.94 29.93 29.93 29.92 29.89 29.89
VIS10 10 10 10 10 9 10 10 10 10 1 2.5 8
CIG14 16 18 36 32 47 60 100 55 48 32 85 90
CoverBKNBKNBKNOVCOVCOVCOVCOVCOVCOVCOVCOVCOVC
FltCatMVFRMVFRMVFRVFRVFRVFRVFRVFRVFRVFRIFRIFRVFR
WX-----------RA------TS+TSRA BRVCTS -RA-TSRA
WDir16016017019017018017017018018016090100
WSpd11 12 8 12 8 6 14 15 13 9 5 5 4
WGst-- -- -- 19 -- -- 19 -- -- -- -- -- --
Raw hourly METARs
KDFW 231353Z 16011KT 10SM BKN014 BKN060 BKN200 20/17 A3001 RMK AO2 SLP155 T02000167
KDFW 231453Z 16012KT 10SM BKN016 BKN060 BKN200 21/17 A3001 RMK AO2 SLP155 T02110167 51007
KDFW 231553Z 17008KT 10SM BKN018 BKN070 BKN200 23/17 A3002 RMK AO2 SLP158 BKN070 V SCT T02280172
KDFW 231653Z 19012G19KT 10SM SCT027 BKN036 BKN080 OVC200 23/17 A3001 RMK AO2 SLP156 T02330167
KDFW 231753Z 17008KT 10SM FEW020 BKN032 BKN050 OVC200 23/17 A2999 RMK AO2 RAB29E41 SLP150 P0000 60000 T02280167 10239 20183 58005
KDFW 231853Z 18006KT 9SM -RA SCT029 BKN047 OVC055 22/18 A2998 RMK AO2 RAB01E24B45 SLP145 P0000 T02220183
KDFW 231953Z 17014G19KT 10SM FEW023 BKN060 OVC095 24/18 A2996 RMK AO2 RAE1858 SLP140 SHRA DSNT NE NW P0000 T02390178
KDFW 232053Z 17015KT 10SM FEW023 SCT047 OVC100 24/18 A2994 RMK AO2 SLP133 60000 T02390178 58016
KDFW 232153Z 18013KT 10SM FEW022 BKN055 OVC110 24/18 A2993 RMK AO2 SLP129 T02390178
KDFW 232301Z 18009KT 10SM TS BKN048 OVC055CB 23/18 A2993 RMK AO2 LTG DSNT S TSB2255 OCNL LTGIC S TS S MOV NE T02280178
KDFW 232353Z 16005KT 1SM R17C/5000VP6000FT +TSRA BR FEW004 BKN032 OVC090CB 20/19 A2992 RMK AO2 LTG DSNT NE AND SW RAB23 TSB2255E10B11 SLP125 FRQ LTGICCC ALQDS TS ALQDS MOV NE P0041 60041 T02000189 10239 20200 56009
KDFW 240053Z 09005KT 2 1/2SM VCTS -RA FEW046 SCT065 OVC085 19/17 A2989 RMK AO2 SFC VIS 10 LTG DSNT NE-S TSE15B18E46 SLP117 OCNL LTGIC DSNT NE TS MOVD NE CB DSNT NE MOV NE P0015 T01940172
KDFW 240153Z 10004KT 8SM -TSRA SCT040CB BKN090 BKN110 OVC170 19/18 A2989 RMK AO2 LTG DSNT ALQDS RAE12B51 TSB51 SLP115 OCNL LTGICCC ALQDS TS ALQDS MOV NE P0000 T01940178



Page loaded:  02:11 UTC  |   07:11 PM Pacific  |   08:11 PM Mountain  |   09:11 PM Central  |   10:11 PM Eastern

 

ADVISORIES

FORECASTS

FORECASTS

OBSERVATIONS

USER TOOLS

ABOUT US